createdAt,value
2018-11-27T00:00:26.551Z,46.03
2018-11-27T00:03:00.647Z,45.67
2018-11-27T07:37:09.703Z,27.70
2018-11-27T07:39:40.560Z,27.17
2018-11-27T07:42:10.924Z,26.20
2018-11-27T07:44:41.471Z,26.20
2018-11-27T07:47:11.757Z,24.80
2018-11-27T07:49:42.226Z,26.50
2018-11-27T07:52:12.659Z,24.37
2018-11-27T07:54:43.123Z,26.50
2018-11-27T07:57:13.403Z,25.50
2018-11-27T07:59:44.331Z,25.73
2018-11-27T08:02:15.077Z,26.93
2018-11-27T08:04:46.187Z,27.33
2018-11-27T08:07:16.879Z,13.50
2018-11-27T08:09:47.198Z,18.43
2018-11-27T08:12:17.721Z,16.87
2018-11-27T08:14:48.054Z,16.03
2018-11-27T08:17:18.573Z,19.80
2018-11-27T08:19:48.925Z,19.97
2018-11-27T08:22:19.599Z,18.83
2018-11-27T08:24:50.210Z,19.27
2018-11-27T08:27:20.439Z,18.40
2018-11-27T17:01:33.942Z,19.97
2018-11-27T17:04:06.166Z,20.63
2018-11-27T17:06:36.562Z,17.80
2018-11-27T17:09:10.736Z,15.33
2018-11-27T17:11:41.511Z,14.80
2018-11-27T17:14:12.268Z,17.37
2018-11-27T17:16:42.755Z,16.60
2018-11-27T17:19:12.947Z,17.80
2018-11-27T17:21:43.516Z,18.20
2018-11-27T17:24:14.261Z,24.47
2018-11-27T17:26:44.896Z,24.40
2018-11-27T17:29:15.390Z,19.37
2018-11-27T17:31:47.284Z,22.10
2018-11-27T17:34:18.159Z,19.10
2018-11-27T17:36:48.775Z,16.63
2018-11-27T17:39:20.399Z,23.30
2018-11-27T17:41:50.932Z,26.30
2018-11-27T17:44:21.571Z,26.90
2018-11-27T17:46:51.940Z,17.60
2018-11-27T17:49:22.471Z,17.27
2018-11-27T17:51:53.210Z,18.03
2018-11-27T17:54:23.739Z,19.33
2018-11-27T17:56:54.564Z,17.43
2018-11-27T17:59:24.938Z,17.33
2018-11-27T18:01:55.539Z,18.03
2018-11-27T18:04:26.511Z,19.87
2018-11-27T18:06:57.241Z,21.13
2018-11-27T18:09:27.889Z,19.40
2018-11-27T18:11:58.466Z,23.47
2018-11-27T18:14:28.899Z,24.20
2018-11-27T18:17:00.306Z,22.30
2018-11-27T18:19:31.074Z,23.93
2018-11-27T18:22:01.519Z,28.80
2018-11-27T18:24:32.043Z,27.07
2018-11-27T18:27:02.820Z,29.07
2018-11-27T18:29:35.715Z,35.73
2018-11-27T18:32:07.573Z,47.27
2018-11-27T18:34:38.824Z,55.40
2018-11-27T18:37:09.363Z,51.77
2018-11-27T18:39:39.971Z,45.47
2018-11-27T18:42:10.483Z,45.87
2018-11-27T18:44:41.173Z,44.17
2018-11-27T18:47:11.709Z,41.07
2018-11-27T18:49:42.063Z,45.07
2018-11-27T18:52:13.641Z,42.73
2018-11-27T18:54:44.067Z,41.57
2018-11-27T18:57:14.454Z,84.80
2018-11-27T18:59:45.351Z,74.83
2018-11-27T19:02:15.789Z,153.33
2018-11-27T19:04:46.629Z,156.40
2018-11-27T19:07:17.035Z,165.73
2018-11-27T19:09:47.362Z,133.37
2018-11-27T19:12:17.991Z,120.30
2018-11-27T19:14:48.356Z,106.63
2018-11-27T19:17:19.177Z,75.37
2018-11-27T19:19:50.054Z,79.80
2018-11-27T19:22:21.475Z,92.90
2018-11-27T19:24:52.344Z,85.27
2018-11-27T19:27:24.897Z,96.93
2018-11-27T19:29:55.296Z,154.80
2018-11-27T19:32:25.852Z,104.50
2018-11-27T19:34:56.675Z,77.10
2018-11-27T19:37:27.375Z,80.47
2018-11-27T19:39:58.253Z,96.27
2018-11-27T19:42:28.418Z,178.63
2018-11-27T19:44:59.937Z,132.00
2018-11-27T19:47:30.825Z,155.73
2018-11-27T19:50:01.330Z,129.47
2018-11-27T19:52:32.497Z,67.30
2018-11-27T19:55:02.880Z,69.47
2018-11-27T19:57:33.439Z,65.60
2018-11-27T20:00:04.265Z,64.87
2018-11-27T20:02:35.260Z,63.57
2018-11-27T20:05:05.870Z,65.17
2018-11-27T20:07:36.280Z,63.03
2018-11-27T20:10:08.409Z,63.57
2018-11-27T20:12:39.014Z,64.03
2018-11-27T20:15:15.246Z,61.73
2018-11-27T20:17:46.159Z,61.40
2018-11-27T20:20:18.390Z,60.23
2018-11-27T20:22:49.037Z,61.87
2018-11-27T20:25:20.922Z,61.57
2018-11-27T20:27:51.356Z,59.17
2018-11-27T20:30:24.073Z,57.50
2018-11-27T20:32:56.485Z,58.00
2018-11-27T20:35:27.716Z,57.33
2018-11-27T20:37:58.975Z,57.00
2018-11-27T20:40:29.895Z,55.73
2018-11-27T20:43:00.625Z,56.47
2018-11-27T20:45:31.368Z,56.03
2018-11-27T20:48:19.541Z,54.67
2018-11-27T20:50:51.962Z,58.77
2018-11-27T20:53:22.707Z,52.57
2018-11-27T20:55:53.742Z,54.33
2018-11-27T20:58:24.531Z,51.93
2018-11-27T21:00:55.741Z,51.07
2018-11-27T21:03:26.414Z,52.60
2018-11-27T21:05:57.193Z,54.10
2018-11-27T21:08:28.373Z,51.53
2018-11-27T21:10:59.279Z,52.47
2018-11-27T21:13:30.224Z,52.47
2018-11-27T21:16:00.663Z,50.57
2018-11-27T21:18:31.683Z,49.67
2018-11-27T21:21:02.533Z,49.20
2018-11-27T21:24:36.825Z,52.10
2018-11-27T21:27:07.880Z,49.60
2018-11-27T21:29:38.422Z,48.27
2018-11-27T21:32:09.238Z,49.90
2018-11-27T21:34:40.112Z,48.43
2018-11-27T21:37:10.705Z,48.20
2018-11-27T21:39:41.269Z,48.83
2018-11-27T21:42:11.588Z,47.60
2018-11-27T21:44:42.056Z,47.40
2018-11-27T21:47:12.600Z,47.43
2018-11-27T21:49:43.351Z,48.10
2018-11-27T21:52:13.806Z,47.13
2018-11-27T21:54:44.352Z,46.10
2018-11-27T21:57:15.314Z,46.73
2018-11-27T21:59:45.990Z,45.27
2018-11-27T22:02:16.338Z,46.00
2018-11-27T22:04:47.533Z,44.10
2018-11-27T22:07:18.283Z,43.67
2018-11-27T22:09:49.111Z,45.53
2018-11-27T22:12:19.406Z,46.13
2018-11-27T22:14:50.089Z,43.50
2018-11-27T22:17:20.945Z,40.37
2018-11-27T22:19:51.255Z,40.60
2018-11-27T22:22:22.968Z,33.90
2018-11-27T22:24:53.501Z,35.17
2018-11-27T22:27:24.170Z,32.80
2018-11-27T22:29:55.030Z,32.43
2018-11-27T22:32:25.594Z,32.70
2018-11-27T22:34:55.966Z,31.40
2018-11-27T22:37:26.676Z,31.87
2018-11-27T22:39:57.022Z,32.97
2018-11-27T22:42:29.814Z,34.37
2018-11-27T22:45:00.773Z,31.10
2018-11-27T22:47:31.161Z,33.60
2018-11-27T22:50:01.916Z,34.40
2018-11-27T22:52:31.881Z,32.87
2018-11-27T22:55:02.315Z,35.43
2018-11-27T22:57:32.870Z,36.40
2018-11-27T23:00:03.923Z,36.97
2018-11-27T23:02:34.899Z,45.53
2018-11-27T23:05:05.687Z,58.83
2018-11-27T23:07:41.874Z,55.60
2018-11-27T23:10:13.264Z,37.67
2018-11-27T23:12:43.535Z,36.17
2018-11-27T23:15:15.129Z,34.27
2018-11-27T23:17:45.475Z,35.27
2018-11-27T23:20:17.045Z,33.90
2018-11-27T23:22:47.768Z,52.37
2018-11-27T23:25:19.511Z,83.47
2018-11-27T23:27:50.322Z,33.73
2018-11-27T23:30:24.389Z,32.30
2018-11-27T23:32:55.891Z,34.10
2018-11-27T23:35:26.631Z,32.40
2018-11-27T23:37:58.280Z,33.50
2018-11-27T23:40:29.073Z,33.03
2018-11-27T23:42:59.614Z,32.30
2018-11-27T23:45:30.009Z,32.07
2018-11-27T23:48:00.868Z,31.23
2018-11-27T23:50:31.052Z,31.13
2018-11-27T23:53:01.503Z,30.47
2018-11-27T23:55:31.418Z,30.73
2018-11-27T23:58:02.500Z,31.47
